Time,TemperatureF,DewpointF,PressureIn,WindDirection,WindDirectionDegrees,WindSpeedMPH,WindSpeedGustMPH,Humidity,HourlyPrecipIn,Conditions,Clouds,dailyrainin,SoftwareType,DateUTC
2013-06-11 00:01:00,54.7,53.6,30.05,NNW,345,0.0,0.0,96,0.06,-RA,,0.00,WeatherDisplay:10.37,2013-06-11 04:01:00,
2013-06-11 00:02:00,54.6,53.5,30.05,NNW,345,0.0,0.0,96,0.06,-RA,,0.00,WeatherDisplay:10.37,2013-06-11 04:02:00,
2013-06-11 00:03:00,55.0,53.9,30.05,NNW,345,0.0,0.0,96,0.06,-RA,,0.00,WeatherDisplay:10.37,2013-06-11 04:03:00,
2013-06-11 00:08:00,55.4,54.3,30.05,NNW,345,0.0,0.0,96,0.07,-RA,,0.01,WeatherDisplay:10.37,2013-06-11 04:08:00,
2013-06-11 00:13:00,56.2,55.1,30.04,NNW,345,0.0,0.0,96,0.06,-RA,,0.01,WeatherDisplay:10.37,2013-06-11 04:13:00,
2013-06-11 00:18:00,55.9,54.8,30.04,NNW,345,0.0,0.0,96,0.06,-RA,,0.01,WeatherDisplay:10.37,2013-06-11 04:18:00,
2013-06-11 00:23:00,55.8,54.7,30.04,NNW,345,0.0,0.0,96,0.05,-RA,,0.01,WeatherDisplay:10.37,2013-06-11 04:23:00,
2013-06-11 00:28:00,56.1,55.0,30.04,NNW,345,2.3,2.3,96,0.05,-RA,,0.01,WeatherDisplay:10.37,2013-06-11 04:28:00,
2013-06-11 00:33:00,55.0,55.0,30.03,NNW,345,1.1,1.1,100,0.04,-RA,,0.01,WeatherDisplay:10.37,2013-06-11 04:33:00,
2013-06-11 00:38:00,55.7,55.7,30.03,NNW,345,1.1,0.0,100,0.04,-RA,,0.01,WeatherDisplay:10.37,2013-06-11 04:38:00,
2013-06-11 00:43:00,56.5,56.5,30.03,NNW,345,1.1,1.1,100,0.03,-RA,,0.02,WeatherDisplay:10.37,2013-06-11 04:43:00,
2013-06-11 00:48:00,56.3,56.3,30.03,NNW,345,1.1,1.1,100,0.04,-RA,,0.02,WeatherDisplay:10.37,2013-06-11 04:48:00,
2013-06-11 00:53:00,56.0,56.0,30.02,NNW,345,2.0,2.0,100,0.03,-RA,,0.02,WeatherDisplay:10.37,2013-06-11 04:53:00,
2013-06-11 00:58:00,56.0,56.0,30.02,NNW,345,1.1,1.1,100,0.02,-RA,,0.02,WeatherDisplay:10.37,2013-06-11 04:58:00,
2013-06-11 01:03:00,55.4,55.4,30.01,NNW,345,2.3,2.3,100,0.02,-RA,,0.03,WeatherDisplay:10.37,2013-06-11 05:03:00,
2013-06-11 01:08:00,55.9,55.9,30.01,NNW,345,2.3,0.0,100,0.02,-RA,,0.03,WeatherDisplay:10.37,2013-06-11 05:08:00,
2013-06-11 01:13:00,55.8,55.8,30.01,NNW,345,1.1,1.1,100,0.02,-RA,,0.03,WeatherDisplay:10.37,2013-06-11 05:13:00,
2013-06-11 01:18:00,54.2,54.2,30.01,NNW,345,0.0,0.0,100,0.02,-RA,,0.03,WeatherDisplay:10.37,2013-06-11 05:18:00,
2013-06-11 01:23:00,53.7,53.7,30.00,NNW,345,0.0,0.0,100,0.02,-RA,,0.03,WeatherDisplay:10.37,2013-06-11 05:23:00,
2013-06-11 01:28:00,54.8,54.8,30.00,NNW,345,2.3,2.3,100,0.02,-RA,,0.03,WeatherDisplay:10.37,2013-06-11 05:28:00,
2013-06-11 01:33:00,55.2,55.2,30.00,NNW,345,0.0,0.0,100,0.02,-RA,,0.03,WeatherDisplay:10.37,2013-06-11 05:33:00,
2013-06-11 01:38:00,54.8,54.8,30.00,NNW,345,1.1,0.0,100,0.02,-RA,,0.03,WeatherDisplay:10.37,2013-06-11 05:38:00,
2013-06-11 01:43:00,53.6,53.6,29.98,NNW,345,0.0,0.0,100,0.03,-RA,,0.04,WeatherDisplay:10.37,2013-06-11 05:43:00,
2013-06-11 01:48:00,54.1,54.1,29.98,NNW,345,1.1,1.1,100,0.02,-RA,,0.04,WeatherDisplay:10.37,2013-06-11 05:48:00,
2013-06-11 01:53:00,54.1,54.1,29.98,NNW,345,2.3,2.3,100,0.02,-RA,,0.04,WeatherDisplay:10.37,2013-06-11 05:53:00,
2013-06-11 01:58:00,54.8,54.8,29.98,NNW,345,2.3,2.3,100,0.02,-RA,,0.04,WeatherDisplay:10.37,2013-06-11 05:58:00,
2013-06-11 02:03:00,55.2,54.1,29.97,North,2,3.5,3.5,96,0.03,-RA,,0.05,WeatherDisplay:10.37,2013-06-11 06:03:00,
2013-06-11 02:08:00,54.9,53.8,29.97,North,3,3.5,3.5,96,0.02,-RA,,0.05,WeatherDisplay:10.37,2013-06-11 06:08:00,
2013-06-11 02:13:00,55.1,54.0,29.97,North,2,3.5,3.5,96,0.02,-RA,,0.05,WeatherDisplay:10.37,2013-06-11 06:13:00,
2013-06-11 02:18:00,54.7,53.6,29.97,North,5,3.5,3.5,96,0.02,-RA,,0.05,WeatherDisplay:10.37,2013-06-11 06:18:00,
2013-06-11 02:23:00,54.8,53.7,29.97,North,6,3.0,3.0,96,0.02,-RA,,0.05,WeatherDisplay:10.37,2013-06-11 06:23:00,
2013-06-11 02:28:00,54.9,53.8,29.97,NNE,30,3.5,3.5,96,0.02,-RA,,0.05,WeatherDisplay:10.37,2013-06-11 06:28:00,
2013-06-11 02:33:00,54.7,53.6,29.97,NNE,30,3.5,3.5,96,0.02,-RA,,0.05,WeatherDisplay:10.37,2013-06-11 06:33:00,
2013-06-11 02:38:00,55.2,54.1,29.97,NNE,28,2.3,2.3,96,0.02,-RA,,0.05,WeatherDisplay:10.37,2013-06-11 06:38:00,
2013-06-11 02:43:00,55.4,54.3,29.97,NNE,29,1.1,1.1,96,0.01,-RA,,0.05,WeatherDisplay:10.37,2013-06-11 06:43:00,
2013-06-11 02:48:00,55.2,54.1,29.97,NNE,29,2.3,2.3,96,0.01,-RA,,0.05,WeatherDisplay:10.37,2013-06-11 06:48:00,
2013-06-11 02:53:00,55.1,54.0,29.97,NNE,29,2.3,2.3,96,0.01,-RA,,0.05,WeatherDisplay:10.37,2013-06-11 06:53:00,
2013-06-11 02:58:00,54.9,53.8,29.97,NNE,29,2.3,2.3,96,0.01,-RA,,0.05,WeatherDisplay:10.37,2013-06-11 06:58:00,
2013-06-11 03:03:00,54.5,53.4,29.97,NE,40,3.5,3.5,96,0.01,-RA,,0.06,WeatherDisplay:10.37,2013-06-11 07:03:00,
2013-06-11 03:08:00,54.3,53.2,29.97,ENE,69,8.1,8.1,96,0.01,-RA,,0.06,WeatherDisplay:10.37,2013-06-11 07:08:00,
2013-06-11 03:13:00,54.1,54.1,29.94,NE,51,6.9,6.9,100,0.02, +RA,,0.07,WeatherDisplay:10.37,2013-06-11 07:13:00,
2013-06-11 03:18:00,53.8,53.8,29.94,NE,46,2.3,2.3,100,0.02, +RA,,0.07,WeatherDisplay:10.37,2013-06-11 07:18:00,
2013-06-11 03:23:00,53.5,53.5,29.94,ENE,68,2.3,2.3,100,0.02, +RA,,0.07,WeatherDisplay:10.37,2013-06-11 07:23:00,
2013-06-11 03:28:00,53.7,53.7,29.94,ENE,63,1.1,1.1,100,0.03, +RA,,0.08,WeatherDisplay:10.37,2013-06-11 07:28:00,
2013-06-11 03:33:00,53.7,53.7,29.92,ENE,61,1.1,1.1,100,0.03,-RA,,0.08,WeatherDisplay:10.37,2013-06-11 07:33:00,
2013-06-11 03:38:00,53.6,53.6,29.92,ENE,62,3.5,3.5,100,0.03,-RA,,0.08,WeatherDisplay:10.37,2013-06-11 07:38:00,
2013-06-11 03:43:00,53.2,53.2,29.92,ENE,75,4.6,4.6,100,0.04,-RA,,0.09,WeatherDisplay:10.37,2013-06-11 07:43:00,
2013-06-11 03:48:00,53.1,53.1,29.92,ENE,69,3.5,3.5,100,0.04,-RA,,0.09,WeatherDisplay:10.37,2013-06-11 07:48:00,
2013-06-11 03:53:00,52.9,52.9,29.92,ENE,69,4.6,4.6,100,0.04,-RA,,0.09,WeatherDisplay:10.37,2013-06-11 07:53:00,
2013-06-11 03:58:00,52.8,52.8,29.92,NNE,29,5.8,5.8,100,0.04,-RA,,0.09,WeatherDisplay:10.37,2013-06-11 07:58:00,
2013-06-11 04:03:00,52.3,52.3,29.92,ENE,67,5.8,5.8,100,0.03,-RA,,0.10,WeatherDisplay:10.37,2013-06-11 08:03:00,
2013-06-11 04:08:00,52.4,52.4,29.92,ENE,70,4.0,4.0,100,0.04,-RA,,0.10,WeatherDisplay:10.37,2013-06-11 08:08:00,
2013-06-11 04:13:00,52.2,51.1,29.91,ENE,59,3.5,3.5,96,0.03,-RA,,0.10,WeatherDisplay:10.37,2013-06-11 08:13:00,
2013-06-11 04:18:00,52.1,51.0,29.91,ENE,60,3.5,3.5,96,0.03,-RA,,0.10,WeatherDisplay:10.37,2013-06-11 08:18:00,
2013-06-11 04:23:00,52.4,51.3,29.91,ENE,60,3.5,3.5,96,0.03,-RA,,0.10,WeatherDisplay:10.37,2013-06-11 08:23:00,
2013-06-11 04:28:00,52.4,51.3,29.91,ENE,60,3.5,3.5,96,0.03,-RA,,0.11,WeatherDisplay:10.37,2013-06-11 08:28:00,
2013-06-11 04:33:00,52.5,51.4,29.91,ENE,60,3.5,3.5,96,0.04,-RA,,0.13,WeatherDisplay:10.37,2013-06-11 08:33:00,
2013-06-11 04:38:00,52.5,51.4,29.91,ENE,60,1.1,1.1,96,0.05,-RA,,0.13,WeatherDisplay:10.37,2013-06-11 08:38:00,
2013-06-11 04:43:00,52.6,51.5,29.91,ENE,60,4.0,4.0,96,0.05,-RA,,0.14,WeatherDisplay:10.37,2013-06-11 08:43:00,
2013-06-11 04:48:00,52.3,51.2,29.91,ENE,60,4.0,4.0,96,0.05,-RA,,0.15,WeatherDisplay:10.37,2013-06-11 08:48:00,
2013-06-11 04:53:00,51.9,50.8,29.91,ENE,62,3.5,3.5,96,0.06,-RA,,0.15,WeatherDisplay:10.37,2013-06-11 08:53:00,
2013-06-11 04:58:00,52.2,51.1,29.91,ENE,62,1.1,1.1,96,0.07,-RA,,0.16,WeatherDisplay:10.37,2013-06-11 08:58:00,
2013-06-11 05:03:00,51.9,50.8,29.91,ENE,62,2.3,2.3,96,0.07,-RA,,0.16,WeatherDisplay:10.37,2013-06-11 09:03:00,
2013-06-11 05:08:00,51.5,50.4,29.91,ENE,62,2.3,2.3,96,0.06,-RA,,0.16,WeatherDisplay:10.37,2013-06-11 09:08:00,
2013-06-11 05:13:00,51.7,50.6,29.89,ENE,62,2.3,2.3,96,0.08,-RA,,0.18,WeatherDisplay:10.37,2013-06-11 09:13:00,
2013-06-11 05:18:00,52.4,51.3,29.89,ENE,62,3.5,3.5,96,0.08,-RA,,0.19,WeatherDisplay:10.37,2013-06-11 09:18:00,
2013-06-11 05:23:00,52.3,51.2,29.89,ENE,62,2.3,2.3,96,0.09,-RA,,0.19,WeatherDisplay:10.37,2013-06-11 09:23:00,
2013-06-11 05:28:00,52.1,51.0,29.89,ENE,62,3.5,3.5,96,0.09,-RA,,0.20,WeatherDisplay:10.37,2013-06-11 09:28:00,
2013-06-11 05:33:00,51.8,50.7,29.89,ENE,62,2.3,2.3,96,0.08,-RA,,0.20,WeatherDisplay:10.37,2013-06-11 09:33:00,
2013-06-11 05:38:00,51.7,50.6,29.89,ENE,61,2.3,2.3,96,0.09,-RA,,0.22,WeatherDisplay:10.37,2013-06-11 09:38:00,
2013-06-11 05:43:00,51.9,50.8,29.89,ENE,62,2.3,2.3,96,0.08,-RA,,0.23,WeatherDisplay:10.37,2013-06-11 09:43:00,
2013-06-11 05:48:00,51.5,50.4,29.89,ENE,62,2.3,2.3,96,0.11,-RA,,0.25,WeatherDisplay:10.37,2013-06-11 09:48:00,
2013-06-11 05:53:00,51.7,50.6,29.89,ENE,62,2.3,2.3,96,0.11,-RA,,0.26,WeatherDisplay:10.37,2013-06-11 09:53:00,
2013-06-11 05:58:00,52.4,51.3,29.89,ENE,62,3.5,3.5,96,0.11,-RA,,0.27,WeatherDisplay:10.37,2013-06-11 09:58:00,
2013-06-11 06:03:00,52.2,51.1,29.87,ENE,62,3.5,3.5,96,0.12,RA,,0.28,WeatherDisplay:10.37,2013-06-11 10:03:00,
2013-06-11 06:08:00,51.7,50.6,29.87,ENE,62,3.5,3.5,96,0.12,OVC,,0.28,WeatherDisplay:10.37,2013-06-11 10:08:00,
2013-06-11 06:13:00,51.5,50.4,29.87,ENE,62,3.5,3.5,96,0.11,RA,,0.29,WeatherDisplay:10.37,2013-06-11 10:13:00,
2013-06-11 06:18:00,52.0,50.9,29.87,ENE,62,2.3,2.3,96,0.11,OVC,,0.29,WeatherDisplay:10.37,2013-06-11 10:18:00,
2013-06-11 06:23:00,51.1,50.0,29.87,ENE,62,2.3,2.3,96,0.10,OVC,,0.30,WeatherDisplay:10.37,2013-06-11 10:23:00,
2013-06-11 06:28:00,51.0,49.9,29.87,ENE,62,2.3,2.3,96,0.10,OVC,,0.30,WeatherDisplay:10.37,2013-06-11 10:28:00,
2013-06-11 06:33:00,51.9,50.8,29.87,ENE,62,2.3,2.3,96,0.10,OVC,,0.30,WeatherDisplay:10.37,2013-06-11 10:33:00,
2013-06-11 06:38:00,51.7,50.6,29.87,ENE,62,2.3,2.3,96,0.08,OVC,,0.30,WeatherDisplay:10.37,2013-06-11 10:38:00,
2013-06-11 06:43:00,51.8,50.7,29.87,ENE,62,3.5,3.5,96,0.09,RA,,0.31,WeatherDisplay:10.37,2013-06-11 10:43:00,
2013-06-11 06:48:00,51.9,50.8,29.87,ENE,62,3.5,3.5,96,0.06,OVC,,0.31,WeatherDisplay:10.37,2013-06-11 10:48:00,
2013-06-11 06:53:00,51.7,50.6,29.87,ENE,62,3.5,3.5,96,0.06,OVC,,0.32,WeatherDisplay:10.37,2013-06-11 10:53:00,
2013-06-11 06:58:00,51.7,50.6,29.87,ENE,60,3.5,3.5,96,0.05,OVC,,0.32,WeatherDisplay:10.37,2013-06-11 10:58:00,
2013-06-11 07:03:00,51.8,50.7,29.84,ENE,60,3.5,3.5,96,0.04,-RA,,0.33,WeatherDisplay:10.37,2013-06-11 11:03:00,
2013-06-11 07:08:00,51.9,50.8,29.84,ENE,60,3.5,3.5,96,0.06,-RA,,0.34,WeatherDisplay:10.37,2013-06-11 11:08:00,
2013-06-11 07:13:00,51.5,50.4,29.84,ENE,60,2.3,2.3,96,0.05,-RA,,0.35,WeatherDisplay:10.37,2013-06-11 11:13:00,
2013-06-11 07:18:00,52.1,51.0,29.84,NE,54,3.5,3.5,96,0.06,-RA,,0.35,WeatherDisplay:10.37,2013-06-11 11:18:00,
2013-06-11 07:23:00,52.4,51.3,29.84,NE,56,2.3,2.3,96,0.06,-RA,,0.35,WeatherDisplay:10.37,2013-06-11 11:23:00,
2013-06-11 07:28:00,51.4,50.3,29.84,NE,55,3.5,3.5,96,0.05,-RA,,0.35,WeatherDisplay:10.37,2013-06-11 11:28:00,
2013-06-11 07:33:00,52.4,51.3,29.84,ENE,57,3.5,3.5,96,0.05,-RA,,0.35,WeatherDisplay:10.37,2013-06-11 11:33:00,
2013-06-11 07:38:00,51.5,50.4,29.84,ENE,57,3.5,3.5,96,0.05,-RA,,0.35,WeatherDisplay:10.37,2013-06-11 11:38:00,
2013-06-11 07:43:00,52.4,51.3,29.84,ENE,57,1.1,1.1,96,0.04,-RA,,0.35,WeatherDisplay:10.37,2013-06-11 11:43:00,
2013-06-11 07:48:00,52.1,51.0,29.84,ENE,57,3.0,3.0,96,0.04,-RA,,0.35,WeatherDisplay:10.37,2013-06-11 11:48:00,
2013-06-11 07:53:00,51.8,50.7,29.84,ENE,57,2.3,2.3,96,0.03,-RA,,0.35,WeatherDisplay:10.37,2013-06-11 11:53:00,
2013-06-11 07:58:00,51.8,50.7,29.84,ENE,57,3.5,3.5,96,0.03,-RA,,0.35,WeatherDisplay:10.37,2013-06-11 11:58:00,
2013-06-11 08:03:00,52.6,51.5,29.84,ENE,57,2.3,2.3,96,0.03,-RA,,0.35,WeatherDisplay:10.37,2013-06-11 12:03:00,
2013-06-11 08:08:00,52.7,51.6,29.84,ENE,58,3.5,3.5,96,0.01,-RA,,0.35,WeatherDisplay:10.37,2013-06-11 12:08:00,
2013-06-11 08:13:00,52.2,52.2,29.81,ENE,58,3.5,3.5,100,0.01,OVC,,0.35,WeatherDisplay:10.37,2013-06-11 12:13:00,
2013-06-11 08:18:00,52.4,52.4,29.81,ENE,58,3.5,3.5,100,0.00,OVC,,0.35,WeatherDisplay:10.37,2013-06-11 12:18:00,
2013-06-11 08:23:00,52.3,52.3,29.81,ENE,58,3.5,3.5,100,0.00,OVC,,0.35,WeatherDisplay:10.37,2013-06-11 12:23:00,
2013-06-11 08:28:00,52.6,52.6,29.81,ENE,58,3.5,3.5,100,0.00,OVC,,0.35,WeatherDisplay:10.37,2013-06-11 12:28:00,
2013-06-11 08:33:00,52.5,52.5,29.81,ENE,58,3.5,3.5,100,0.00,OVC,,0.35,WeatherDisplay:10.37,2013-06-11 12:33:00,
2013-06-11 08:38:00,52.0,52.0,29.81,ENE,58,2.3,2.3,100,0.00,OVC,,0.35,WeatherDisplay:10.37,2013-06-11 12:38:00,
2013-06-11 08:43:00,52.1,52.1,29.81,ENE,58,3.5,3.5,100,0.00,OVC,,0.35,WeatherDisplay:10.37,2013-06-11 12:43:00,
2013-06-11 08:48:00,52.0,52.0,29.81,ENE,58,3.5,3.5,100,0.01,RA,,0.36,WeatherDisplay:10.37,2013-06-11 12:48:00,
2013-06-11 08:53:00,52.2,52.2,29.81,ENE,58,3.5,3.5,100,0.01,OVC,,0.36,WeatherDisplay:10.37,2013-06-11 12:53:00,
2013-06-11 08:58:00,52.0,52.0,29.81,ENE,58,3.5,3.5,100,0.01,OVC,,0.36,WeatherDisplay:10.37,2013-06-11 12:58:00,
2013-06-11 09:03:00,51.5,51.5,29.81,ENE,59,3.5,3.5,100,0.01,OVC,,0.36,WeatherDisplay:10.37,2013-06-11 13:03:00,
2013-06-11 09:08:00,51.7,51.7,29.81,ENE,60,2.3,2.3,100,0.02,RA,,0.37,WeatherDisplay:10.37,2013-06-11 13:08:00,
2013-06-11 09:13:00,51.4,49.4,29.77,ENE,60,3.5,3.5,93,0.02,-RA,,0.37,WeatherDisplay:10.37,2013-06-11 13:13:00,
2013-06-11 09:18:00,51.4,49.4,29.77,ENE,60,3.0,3.0,93,0.02,-RA,,0.37,WeatherDisplay:10.37,2013-06-11 13:18:00,
2013-06-11 09:23:00,51.3,49.3,29.77,ENE,60,3.5,3.5,93,0.02,-RA,,0.38,WeatherDisplay:10.37,2013-06-11 13:23:00,
2013-06-11 09:28:00,51.8,49.8,29.77,ENE,60,2.3,2.3,93,0.03,-RA,,0.38,WeatherDisplay:10.37,2013-06-11 13:28:00,
2013-06-11 09:33:00,51.3,49.3,29.77,ENE,58,3.5,3.5,93,0.03,-RA,,0.38,WeatherDisplay:10.37,2013-06-11 13:33:00,
2013-06-11 09:38:00,51.8,49.8,29.77,ENE,58,4.0,4.0,93,0.03,-RA,,0.38,WeatherDisplay:10.37,2013-06-11 13:38:00,
2013-06-11 09:43:00,51.4,49.4,29.77,ENE,58,3.0,3.0,93,0.03,-RA,,0.38,WeatherDisplay:10.37,2013-06-11 13:43:00,
2013-06-11 09:48:00,51.7,49.7,29.77,NE,45,3.5,3.5,93,0.02,-RA,,0.38,WeatherDisplay:10.37,2013-06-11 13:48:00,
2013-06-11 09:53:00,51.5,49.5,29.77,NE,43,1.1,1.1,93,0.02,OVC,,0.39,WeatherDisplay:10.37,2013-06-11 13:53:00,
2013-06-11 09:58:00,52.2,50.2,29.77,NE,43,1.1,1.1,93,0.03,OVC,,0.39,WeatherDisplay:10.37,2013-06-11 13:58:00,
2013-06-11 10:03:00,51.7,51.7,29.77,NE,43,1.1,0.0,100,0.03,-RA,,0.39,WeatherDisplay:10.37,2013-06-11 14:03:00,
2013-06-11 10:08:00,51.7,51.7,29.77,NE,43,2.0,2.0,100,0.03,-RA,,0.40,WeatherDisplay:10.37,2013-06-11 14:08:00,
2013-06-11 10:13:00,51.6,49.6,29.76,NE,43,2.3,2.3,93,0.03,-RA,,0.40,WeatherDisplay:10.37,2013-06-11 14:13:00,
2013-06-11 10:18:00,51.9,49.9,29.76,NE,43,2.3,2.3,93,0.04,-RA,,0.41,WeatherDisplay:10.37,2013-06-11 14:18:00,
2013-06-11 10:23:00,51.8,49.8,29.76,NE,43,3.5,3.5,93,0.05,-RA,,0.42,WeatherDisplay:10.37,2013-06-11 14:23:00,
2013-06-11 10:28:00,52.4,50.4,29.76,NE,43,3.5,3.5,93,0.05,-RA,,0.43,WeatherDisplay:10.37,2013-06-11 14:28:00,
2013-06-11 10:33:00,52.3,50.3,29.76,NE,43,3.5,3.5,93,0.05,-RA,,0.43,WeatherDisplay:10.37,2013-06-11 14:33:00,
2013-06-11 10:38:00,51.9,49.9,29.76,NE,43,3.5,3.5,93,0.05,-RA,,0.43,WeatherDisplay:10.37,2013-06-11 14:38:00,
2013-06-11 10:43:00,51.8,51.8,29.75,NE,39,3.5,3.5,100,0.05,-RA,,0.43,WeatherDisplay:10.37,2013-06-11 14:43:00,
2013-06-11 10:48:00,52.0,52.0,29.75,NE,38,3.5,3.5,100,0.05,-RA,,0.44,WeatherDisplay:10.37,2013-06-11 14:48:00,
2013-06-11 10:53:00,52.3,52.3,29.75,NE,39,3.5,3.5,100,0.06,-RA,,0.44,WeatherDisplay:10.37,2013-06-11 14:53:00,
2013-06-11 10:58:00,52.6,52.6,29.75,NE,39,3.5,3.5,100,0.05,-RA,,0.44,WeatherDisplay:10.37,2013-06-11 14:58:00,
2013-06-11 11:03:00,52.5,51.4,29.75,NE,39,4.0,4.0,96,0.05,OVC,,0.44,WeatherDisplay:10.37,2013-06-11 15:03:00,
2013-06-11 11:08:00,52.2,51.1,29.75,NE,39,3.5,3.5,96,0.04,OVC,,0.44,WeatherDisplay:10.37,2013-06-11 15:08:00,
2013-06-11 11:13:00,52.3,51.2,29.75,NE,39,3.5,3.5,96,0.04,OVC,,0.44,WeatherDisplay:10.37,2013-06-11 15:13:00,
2013-06-11 11:18:00,52.3,51.2,29.75,NE,39,3.5,3.5,96,0.03,OVC,,0.44,WeatherDisplay:10.37,2013-06-11 15:18:00,
2013-06-11 11:23:00,52.5,51.4,29.75,NE,40,4.6,4.6,96,0.02,OVC,,0.44,WeatherDisplay:10.37,2013-06-11 15:23:00,
2013-06-11 11:28:00,52.2,51.1,29.75,NE,40,2.3,2.3,96,0.01,OVC,,0.44,WeatherDisplay:10.37,2013-06-11 15:28:00,
2013-06-11 11:33:00,52.4,51.3,29.75,NE,40,3.5,3.5,96,0.01,OVC,,0.44,WeatherDisplay:10.37,2013-06-11 15:33:00,
2013-06-11 11:38:00,52.7,51.6,29.75,NE,40,2.3,2.3,96,0.01,OVC,,0.44,WeatherDisplay:10.37,2013-06-11 15:38:00,
2013-06-11 11:43:00,52.6,48.8,29.74,NE,40,3.5,3.5,87,0.01,OVC,,0.44,WeatherDisplay:10.37,2013-06-11 15:43:00,
2013-06-11 11:48:00,52.6,48.8,29.74,NE,40,3.5,3.5,87,0.01,OVC,,0.44,WeatherDisplay:10.37,2013-06-11 15:48:00,
2013-06-11 11:53:00,53.3,49.5,29.74,NE,40,2.3,2.3,87,0.00,OVC,,0.44,WeatherDisplay:10.37,2013-06-11 15:53:00,
2013-06-11 11:58:00,53.0,49.2,29.74,NE,40,3.5,3.5,87,0.00,OVC,,0.44,WeatherDisplay:10.37,2013-06-11 15:58:00,
2013-06-11 12:03:00,53.0,49.8,29.73,NE,40,2.3,2.3,89,0.00,OVC,,0.44,WeatherDisplay:10.37,2013-06-11 16:03:00,
2013-06-11 12:08:00,52.9,49.7,29.73,NE,40,2.3,2.3,89,0.00,OVC,,0.44,WeatherDisplay:10.37,2013-06-11 16:08:00,
2013-06-11 12:13:00,53.6,50.4,29.73,NE,40,3.5,3.5,89,0.00,OVC,,0.44,WeatherDisplay:10.37,2013-06-11 16:13:00,
2013-06-11 12:18:00,53.5,50.3,29.73,NE,40,2.3,2.3,89,0.00,OVC,,0.44,WeatherDisplay:10.37,2013-06-11 16:18:00,
2013-06-11 12:23:00,53.1,49.9,29.73,NE,40,2.3,2.3,89,0.00,OVC,,0.44,WeatherDisplay:10.37,2013-06-11 16:23:00,
2013-06-11 12:28:00,53.1,49.9,29.73,NE,40,3.5,3.5,89,0.00,OVC,,0.44,WeatherDisplay:10.37,2013-06-11 16:28:00,
2013-06-11 12:33:00,53.2,50.0,29.73,NE,40,2.3,2.3,89,0.00,OVC,,0.44,WeatherDisplay:10.37,2013-06-11 16:33:00,
2013-06-11 12:38:00,53.3,50.1,29.73,NE,40,2.3,2.3,89,0.00,OVC,,0.44,WeatherDisplay:10.37,2013-06-11 16:38:00,
2013-06-11 12:43:00,53.8,50.6,29.73,NE,40,3.5,3.5,89,0.00,OVC,,0.44,WeatherDisplay:10.37,2013-06-11 16:43:00,
2013-06-11 12:48:00,53.7,50.5,29.73,NE,40,3.5,3.5,89,0.00,OVC,,0.44,WeatherDisplay:10.37,2013-06-11 16:48:00,
2013-06-11 12:53:00,53.8,50.6,29.73,NE,40,3.5,3.5,89,0.00,OVC,,0.44,WeatherDisplay:10.37,2013-06-11 16:53:00,
2013-06-11 12:58:00,53.4,50.2,29.73,NE,40,3.5,3.5,89,0.00,OVC,,0.44,WeatherDisplay:10.37,2013-06-11 16:58:00,
2013-06-11 13:03:00,53.8,49.7,29.72,NE,42,3.5,3.5,86,0.00,OVC,,0.44,WeatherDisplay:10.37,2013-06-11 17:03:00,
2013-06-11 13:08:00,53.9,49.8,29.72,NE,42,3.5,3.5,86,0.00,OVC,,0.44,WeatherDisplay:10.37,2013-06-11 17:08:00,
2013-06-11 13:13:00,54.4,50.3,29.72,NE,42,3.5,3.5,86,0.00,OVC,,0.44,WeatherDisplay:10.37,2013-06-11 17:13:00,
2013-06-11 13:18:00,54.4,50.3,29.72,NNE,32,3.5,3.5,86,0.00,OVC,,0.44,WeatherDisplay:10.37,2013-06-11 17:18:00,
2013-06-11 13:23:00,54.5,50.4,29.72,ENE,66,6.0,6.0,86,0.00,OVC,,0.44,WeatherDisplay:10.37,2013-06-11 17:23:00,
2013-06-11 13:28:00,54.4,50.3,29.72,ENE,73,5.8,5.8,86,0.00,OVC,,0.44,WeatherDisplay:10.37,2013-06-11 17:28:00,
2013-06-11 13:33:00,54.9,50.8,29.72,ENE,67,2.3,2.3,86,0.00,OVC,,0.44,WeatherDisplay:10.37,2013-06-11 17:33:00,
2013-06-11 13:38:00,54.8,50.7,29.72,ENE,63,2.3,2.3,86,0.00,OVC,,0.44,WeatherDisplay:10.37,2013-06-11 17:38:00,
2013-06-11 13:43:00,54.9,51.1,29.72,ENE,62,3.5,3.5,87,0.00,OVC,,0.44,WeatherDisplay:10.37,2013-06-11 17:43:00,
2013-06-11 13:48:00,55.0,51.2,29.72,ENE,62,1.1,1.1,87,0.00,OVC,,0.44,WeatherDisplay:10.37,2013-06-11 17:48:00,
2013-06-11 13:53:00,54.0,50.2,29.72,NE,50,2.3,2.3,87,0.00,OVC,,0.44,WeatherDisplay:10.37,2013-06-11 17:53:00,
2013-06-11 13:58:00,54.0,50.2,29.72,NE,50,3.0,3.0,87,0.00,OVC,,0.44,WeatherDisplay:10.37,2013-06-11 17:58:00,
2013-06-11 14:03:00,53.8,48.8,29.71,NE,50,3.5,3.5,83,0.00,OVC,,0.44,WeatherDisplay:10.37,2013-06-11 18:03:00,
2013-06-11 14:08:00,54.3,49.2,29.71,NE,51,3.5,3.5,83,0.00,OVC,,0.44,WeatherDisplay:10.37,2013-06-11 18:08:00,
2013-06-11 14:13:00,54.6,49.5,29.71,East,84,4.0,4.0,83,0.00,OVC,,0.44,WeatherDisplay:10.37,2013-06-11 18:13:00,
2013-06-11 14:18:00,54.1,49.1,29.71,East,84,3.5,3.5,83,0.00,OVC,,0.44,WeatherDisplay:10.37,2013-06-11 18:18:00,
2013-06-11 14:23:00,54.2,49.1,29.71,East,84,2.3,2.3,83,0.00,OVC,,0.44,WeatherDisplay:10.37,2013-06-11 18:23:00,
2013-06-11 14:28:00,54.6,49.5,29.71,East,84,3.5,3.5,83,0.00,OVC,,0.44,WeatherDisplay:10.37,2013-06-11 18:28:00,
2013-06-11 14:33:00,54.7,49.6,29.71,East,84,3.5,3.5,83,0.00,OVC,,0.44,WeatherDisplay:10.37,2013-06-11 18:33:00,
2013-06-11 14:38:00,55.1,50.0,29.71,East,84,3.5,3.5,83,0.00,OVC,,0.44,WeatherDisplay:10.37,2013-06-11 18:38:00,
2013-06-11 14:43:00,55.0,49.9,29.71,East,84,2.3,2.3,83,0.00,OVC,,0.44,WeatherDisplay:10.37,2013-06-11 18:43:00,
2013-06-11 14:48:00,55.4,50.3,29.71,East,83,3.5,3.5,83,0.00,OVC,,0.44,WeatherDisplay:10.37,2013-06-11 18:48:00,
2013-06-11 14:53:00,55.3,50.2,29.71,East,83,2.3,2.3,83,0.00,OVC,,0.44,WeatherDisplay:10.37,2013-06-11 18:53:00,
2013-06-11 14:58:00,55.2,50.1,29.71,ENE,71,3.5,3.5,83,0.00,OVC,,0.44,WeatherDisplay:10.37,2013-06-11 18:58:00,
2013-06-11 15:03:00,54.6,49.5,29.71,ENE,61,3.5,3.5,83,0.00,OVC,,0.44,WeatherDisplay:10.37,2013-06-11 19:03:00,
2013-06-11 15:08:00,54.4,49.3,29.71,ENE,61,3.5,3.5,83,0.00,OVC,,0.44,WeatherDisplay:10.37,2013-06-11 19:08:00,
2013-06-11 15:13:00,54.5,47.4,29.68,ENE,60,3.5,3.5,77,0.00,OVC,,0.44,WeatherDisplay:10.37,2013-06-11 19:13:00,
2013-06-11 15:18:00,54.8,47.7,29.68,ENE,60,3.5,3.5,77,0.00,OVC,,0.44,WeatherDisplay:10.37,2013-06-11 19:18:00,
2013-06-11 15:23:00,55.4,48.3,29.68,ENE,62,4.6,4.6,77,0.00,OVC,,0.44,WeatherDisplay:10.37,2013-06-11 19:23:00,
2013-06-11 15:28:00,56.0,48.9,29.68,ENE,63,2.0,2.0,77,0.00,OVC,,0.44,WeatherDisplay:10.37,2013-06-11 19:28:00,
2013-06-11 15:33:00,56.1,49.0,29.68,ENE,63,2.3,2.3,77,0.00,OVC,,0.44,WeatherDisplay:10.37,2013-06-11 19:33:00,
2013-06-11 15:38:00,55.5,48.4,29.68,ENE,63,3.5,3.5,77,0.00,OVC,,0.44,WeatherDisplay:10.37,2013-06-11 19:38:00,
2013-06-11 15:43:00,55.5,48.4,29.68,ENE,63,1.1,1.1,77,0.00,OVC,,0.44,WeatherDisplay:10.37,2013-06-11 19:43:00,
2013-06-11 15:48:00,55.6,48.5,29.68,ENE,63,2.3,2.3,77,0.00,OVC,,0.44,WeatherDisplay:10.37,2013-06-11 19:48:00,
2013-06-11 15:53:00,55.3,48.2,29.68,ENE,63,3.5,3.5,77,0.00,OVC,,0.44,WeatherDisplay:10.37,2013-06-11 19:53:00,
2013-06-11 15:58:00,55.2,48.1,29.68,ENE,63,1.1,1.1,77,0.00,OVC,,0.44,WeatherDisplay:10.37,2013-06-11 19:58:00,
2013-06-11 16:03:00,55.2,48.1,29.68,ENE,63,1.1,1.1,77,0.00,OVC,,0.44,WeatherDisplay:10.37,2013-06-11 20:03:00,
2013-06-11 16:08:00,55.6,48.5,29.68,ENE,63,2.3,0.0,77,0.00,OVC,,0.44,WeatherDisplay:10.37,2013-06-11 20:08:00,
2013-06-11 16:13:00,55.8,48.0,29.67,ENE,63,1.1,0.0,75,0.00,OVC,,0.44,WeatherDisplay:10.37,2013-06-11 20:13:00,
2013-06-11 16:18:00,56.2,48.4,29.67,ENE,63,1.0,1.1,75,0.00,OVC,,0.44,WeatherDisplay:10.37,2013-06-11 20:18:00,
2013-06-11 16:23:00,56.8,49.0,29.67,ENE,63,2.3,2.3,75,0.00,OVC,,0.44,WeatherDisplay:10.37,2013-06-11 20:23:00,
2013-06-11 16:28:00,56.7,48.9,29.67,ENE,63,3.0,3.0,75,0.00,OVC,,0.44,WeatherDisplay:10.37,2013-06-11 20:28:00,
2013-06-11 16:33:00,56.6,48.8,29.67,ENE,63,0.0,0.0,75,0.00,OVC,,0.44,WeatherDisplay:10.37,2013-06-11 20:33:00,
2013-06-11 16:38:00,56.0,48.2,29.67,ENE,63,2.3,2.3,75,0.00,OVC,,0.44,WeatherDisplay:10.37,2013-06-11 20:38:00,
2013-06-11 16:43:00,56.0,48.2,29.67,ENE,70,3.5,3.5,75,0.00,OVC,,0.44,WeatherDisplay:10.37,2013-06-11 20:43:00,
2013-06-11 16:48:00,56.0,48.2,29.67,ENE,70,3.5,3.5,75,0.00,OVC,,0.44,WeatherDisplay:10.37,2013-06-11 20:48:00,
2013-06-11 16:53:00,56.1,48.3,29.67,ENE,71,3.5,3.5,75,0.00,OVC,,0.44,WeatherDisplay:10.37,2013-06-11 20:53:00,
2013-06-11 16:58:00,55.7,47.9,29.67,ENE,70,2.3,2.3,75,0.00,OVC,,0.44,WeatherDisplay:10.37,2013-06-11 20:58:00,
2013-06-11 17:03:00,55.8,48.0,29.67,ENE,70,2.3,2.3,75,0.00,OVC,,0.44,WeatherDisplay:10.37,2013-06-11 21:03:00,
2013-06-11 17:08:00,55.7,47.9,29.67,ENE,71,2.3,2.3,75,0.00,OVC,,0.44,WeatherDisplay:10.37,2013-06-11 21:08:00,
2013-06-11 17:13:00,55.6,48.5,29.64,ENE,71,1.1,1.1,77,0.00,OVC,,0.44,WeatherDisplay:10.37,2013-06-11 21:13:00,
2013-06-11 17:18:00,55.6,48.5,29.64,ENE,71,3.5,3.5,77,0.00,OVC,,0.44,WeatherDisplay:10.37,2013-06-11 21:18:00,
2013-06-11 17:23:00,55.6,48.5,29.64,ENE,71,3.5,3.5,77,0.00,OVC,,0.44,WeatherDisplay:10.37,2013-06-11 21:23:00,
2013-06-11 17:28:00,55.5,48.4,29.64,ENE,70,1.1,1.1,77,0.00,OVC,,0.44,WeatherDisplay:10.37,2013-06-11 21:28:00,
2013-06-11 17:33:00,55.5,48.4,29.64,ENE,71,0.0,0.0,77,0.00,OVC,,0.44,WeatherDisplay:10.37,2013-06-11 21:33:00,
2013-06-11 17:38:00,55.4,48.3,29.64,ENE,71,0.0,0.0,77,0.00,OVC,,0.44,WeatherDisplay:10.37,2013-06-11 21:38:00,
2013-06-11 17:43:00,55.0,47.9,29.64,ENE,70,0.0,0.0,77,0.00,OVC,,0.44,WeatherDisplay:10.37,2013-06-11 21:43:00,
2013-06-11 17:48:00,54.9,47.8,29.64,ENE,71,2.3,2.3,77,0.00,OVC,,0.44,WeatherDisplay:10.37,2013-06-11 21:48:00,
2013-06-11 17:53:00,54.9,47.8,29.64,ENE,71,4.6,4.6,77,0.01,RA,,0.45,WeatherDisplay:10.37,2013-06-11 21:53:00,
2013-06-11 17:58:00,55.1,48.0,29.64,ENE,70,3.5,3.5,77,0.01,OVC,,0.45,WeatherDisplay:10.37,2013-06-11 21:58:00,
2013-06-11 18:03:00,54.7,47.6,29.64,ENE,71,3.5,3.5,77,0.01,OVC,,0.45,WeatherDisplay:10.37,2013-06-11 22:03:00,
2013-06-11 18:08:00,54.9,47.8,29.64,ENE,71,1.1,0.0,77,0.01,OVC,,0.45,WeatherDisplay:10.37,2013-06-11 22:08:00,
2013-06-11 18:13:00,54.2,49.1,29.61,ENE,71,2.3,0.0,83,0.01,-RA,,0.46,WeatherDisplay:10.37,2013-06-11 22:13:00,
2013-06-11 18:18:00,54.4,49.3,29.61,ENE,71,2.3,2.3,83,0.02,-RA,,0.46,WeatherDisplay:10.37,2013-06-11 22:18:00,
2013-06-11 18:23:00,54.5,49.4,29.61,ENE,70,0.0,0.0,83,0.02,-RA,,0.46,WeatherDisplay:10.37,2013-06-11 22:23:00,
2013-06-11 18:28:00,54.2,49.1,29.61,ENE,70,0.0,0.0,83,0.03,-RA,,0.47,WeatherDisplay:10.37,2013-06-11 22:28:00,
2013-06-11 18:33:00,53.5,48.5,29.61,ENE,71,0.0,0.0,83,0.05,-RA,,0.49,WeatherDisplay:10.37,2013-06-11 22:33:00,
2013-06-11 18:38:00,53.4,48.4,29.61,ENE,70,1.1,1.1,83,0.05,-RA,,0.49,WeatherDisplay:10.37,2013-06-11 22:38:00,
2013-06-11 18:43:00,53.4,48.4,29.61,ENE,70,0.0,0.0,83,0.07,-RA,,0.51,WeatherDisplay:10.37,2013-06-11 22:43:00,
2013-06-11 18:48:00,53.4,48.4,29.61,ENE,71,0.0,0.0,83,0.08,-RA,,0.52,WeatherDisplay:10.37,2013-06-11 22:48:00,
2013-06-11 18:53:00,53.4,48.4,29.61,ENE,71,0.0,0.0,83,0.08,-RA,,0.53,WeatherDisplay:10.37,2013-06-11 22:53:00,
2013-06-11 18:58:00,53.2,48.2,29.61,ENE,70,0.0,0.0,83,0.09,-RA,,0.54,WeatherDisplay:10.37,2013-06-11 22:58:00,
2013-06-11 19:03:00,52.9,51.8,29.61,ENE,71,1.1,0.0,96,0.09,OVC,,0.55,WeatherDisplay:10.37,2013-06-11 23:03:00,
2013-06-11 19:08:00,52.8,51.7,29.61,ENE,70,0.0,0.0,96,0.10,OVC,,0.55,WeatherDisplay:10.37,2013-06-11 23:08:00,
2013-06-11 19:13:00,53.1,51.1,29.62,ENE,70,1.1,0.0,93,0.10, +RA,,0.55,WeatherDisplay:10.37,2013-06-11 23:13:00,
2013-06-11 19:18:00,53.2,51.2,29.62,ENE,70,0.0,0.0,93,0.10, +RA,,0.56,WeatherDisplay:10.37,2013-06-11 23:18:00,
2013-06-11 19:23:00,53.1,51.1,29.62,ENE,70,0.0,0.0,93,0.10,OVC,,0.56,WeatherDisplay:10.37,2013-06-11 23:23:00,
2013-06-11 19:28:00,53.1,51.1,29.62,ENE,70,0.0,0.0,93,0.10,RA,,0.57,WeatherDisplay:10.37,2013-06-11 23:28:00,
2013-06-11 19:33:00,52.8,50.8,29.62,ENE,71,0.0,0.0,93,0.08,OVC,,0.57,WeatherDisplay:10.37,2013-06-11 23:33:00,
2013-06-11 19:38:00,52.9,50.9,29.62,ENE,71,1.1,0.0,93,0.09,OVC,,0.58,WeatherDisplay:10.37,2013-06-11 23:38:00,
2013-06-11 19:43:00,53.1,51.1,29.62,ENE,70,0.0,0.0,93,0.07,OVC,,0.59,WeatherDisplay:10.37,2013-06-11 23:43:00,
2013-06-11 19:48:00,53.5,51.5,29.62,ENE,71,1.1,0.0,93,0.07,OVC,,0.59,WeatherDisplay:10.37,2013-06-11 23:48:00,
2013-06-11 19:53:00,53.1,53.1,29.61,ENE,71,0.0,0.0,100,0.06,-RA,,0.59,WeatherDisplay:10.37,2013-06-11 23:53:00,
2013-06-11 19:58:00,52.9,52.9,29.61,ENE,70,0.0,0.0,100,0.05,-RA,,0.59,WeatherDisplay:10.37,2013-06-11 23:58:00,
2013-06-11 20:03:00,52.6,52.6,29.61,ENE,71,0.0,0.0,100,0.06,-RA,,0.60,WeatherDisplay:10.37,2013-06-12 00:03:00,
2013-06-11 20:08:00,52.6,52.6,29.61,ENE,70,0.0,0.0,100,0.05,-RA,,0.60,WeatherDisplay:10.37,2013-06-12 00:08:00,
2013-06-11 20:13:00,52.7,52.7,29.61,ENE,71,0.0,0.0,100,0.06,OVC,,0.61,WeatherDisplay:10.37,2013-06-12 00:13:00,
2013-06-11 20:18:00,52.5,52.5,29.61,ENE,70,0.0,0.0,100,0.05,OVC,,0.61,WeatherDisplay:10.37,2013-06-12 00:18:00,
2013-06-11 20:23:00,52.6,52.6,29.61,ENE,70,1.1,0.0,100,0.06,OVC,,0.62,WeatherDisplay:10.37,2013-06-12 00:23:00,
2013-06-11 20:28:00,52.5,52.5,29.61,ENE,71,0.0,0.0,100,0.06,RA,,0.63,WeatherDisplay:10.37,2013-06-12 00:28:00,
2013-06-11 20:33:00,52.3,52.3,29.61,ENE,70,0.0,0.0,100,0.07,RA,,0.64,WeatherDisplay:10.37,2013-06-12 00:33:00,
2013-06-11 20:38:00,52.4,52.4,29.61,ENE,71,0.0,0.0,100,0.06,OVC,,0.64,WeatherDisplay:10.37,2013-06-12 00:38:00,
2013-06-11 20:43:00,52.4,52.4,29.61,ENE,71,0.0,0.0,100,0.06,OVC,,0.64,WeatherDisplay:10.37,2013-06-12 00:43:00,
2013-06-11 20:48:00,52.6,52.6,29.61,ENE,71,0.0,0.0,100,0.05,OVC,,0.64,WeatherDisplay:10.37,2013-06-12 00:48:00,
2013-06-11 20:53:00,52.7,52.7,29.61,ENE,71,0.0,0.0,100,0.05,OVC,,0.64,WeatherDisplay:10.37,2013-06-12 00:53:00,
2013-06-11 20:58:00,52.3,52.3,29.61,ENE,71,0.0,0.0,100,0.05,OVC,,0.64,WeatherDisplay:10.37,2013-06-12 00:58:00,
2013-06-11 21:03:00,52.2,52.2,29.61,ENE,71,0.0,0.0,100,0.04,OVC,,0.64,WeatherDisplay:10.37,2013-06-12 01:03:00,
2013-06-11 21:08:00,52.2,52.2,29.61,ENE,70,0.0,0.0,100,0.05,OVC,,0.65,WeatherDisplay:10.37,2013-06-12 01:08:00,
2013-06-11 21:13:00,52.2,51.1,29.61,ENE,70,0.0,0.0,96,0.04,-RA,,0.65,WeatherDisplay:10.37,2013-06-12 01:13:00,
2013-06-11 21:18:00,52.3,51.2,29.61,ENE,70,0.0,0.0,96,0.04,-RA,,0.65,WeatherDisplay:10.37,2013-06-12 01:18:00,
2013-06-11 21:23:00,52.2,51.1,29.61,ENE,70,0.0,0.0,96,0.03,-RA,,0.65,WeatherDisplay:10.37,2013-06-12 01:23:00,
2013-06-11 21:28:00,52.3,51.2,29.61,ENE,71,0.0,0.0,96,0.02,-RA,,0.65,WeatherDisplay:10.37,2013-06-12 01:28:00,
2013-06-11 21:33:00,52.4,51.3,29.61,ENE,70,0.0,0.0,96,0.01,-RA,,0.65,WeatherDisplay:10.37,2013-06-12 01:33:00,
2013-06-11 21:38:00,52.5,51.4,29.61,ENE,70,0.0,0.0,96,0.01,-RA,,0.65,WeatherDisplay:10.37,2013-06-12 01:38:00,
2013-06-11 21:43:00,52.4,51.3,29.61,ENE,70,0.0,0.0,96,0.01,-RA,,0.65,WeatherDisplay:10.37,2013-06-12 01:43:00,
2013-06-11 21:48:00,52.4,51.3,29.61,ENE,71,0.0,0.0,96,0.01,-RA,,0.65,WeatherDisplay:10.37,2013-06-12 01:48:00,
2013-06-11 21:53:00,52.4,52.4,29.61,ENE,71,0.0,0.0,100,0.01,OVC,,0.65,WeatherDisplay:10.37,2013-06-12 01:53:00,
2013-06-11 21:58:00,52.3,52.3,29.61,ENE,71,0.0,0.0,100,0.01,OVC,,0.65,WeatherDisplay:10.37,2013-06-12 01:58:00,
2013-06-11 22:03:00,52.4,51.3,29.61,ENE,70,0.0,0.0,96,0.01,OVC,,0.65,WeatherDisplay:10.37,2013-06-12 02:03:00,
2013-06-11 22:08:00,52.1,51.0,29.61,ENE,70,0.0,0.0,96,0.00,OVC,,0.65,WeatherDisplay:10.37,2013-06-12 02:08:00,
2013-06-11 22:13:00,52.0,50.9,29.61,ENE,71,0.0,0.0,96,0.00,OVC,,0.65,WeatherDisplay:10.37,2013-06-12 02:13:00,
2013-06-11 22:18:00,52.1,51.0,29.61,ENE,71,0.0,0.0,96,0.00,OVC,,0.65,WeatherDisplay:10.37,2013-06-12 02:18:00,
2013-06-11 22:23:00,52.3,51.2,29.61,ENE,70,0.0,0.0,96,0.00,OVC,,0.65,WeatherDisplay:10.37,2013-06-12 02:23:00,
2013-06-11 22:28:00,52.4,51.3,29.61,ENE,70,0.0,0.0,96,0.00,OVC,,0.65,WeatherDisplay:10.37,2013-06-12 02:28:00,
2013-06-11 22:33:00,52.4,51.3,29.61,ENE,71,0.0,0.0,96,0.00,OVC,,0.65,WeatherDisplay:10.37,2013-06-12 02:33:00,
2013-06-11 22:38:00,52.7,51.6,29.61,ENE,70,0.0,0.0,96,0.00,OVC,,0.65,WeatherDisplay:10.37,2013-06-12 02:38:00,
2013-06-11 22:43:00,52.3,51.2,29.61,ENE,71,0.0,0.0,96,0.00,OVC,,0.65,WeatherDisplay:10.37,2013-06-12 02:43:00,
2013-06-11 22:48:00,52.2,51.1,29.61,ENE,70,0.0,0.0,96,0.00,OVC,,0.65,WeatherDisplay:10.37,2013-06-12 02:48:00,
2013-06-11 22:53:00,52.2,52.2,29.61,ENE,70,0.0,0.0,100,0.00,OVC,,0.65,WeatherDisplay:10.37,2013-06-12 02:53:00,
2013-06-11 22:58:00,52.0,52.0,29.61,ENE,70,0.0,0.0,100,0.00,OVC,,0.65,WeatherDisplay:10.37,2013-06-12 02:58:00,
2013-06-11 23:03:00,51.9,49.9,29.60,ENE,70,0.0,0.0,93,0.00,OVC,,0.65,WeatherDisplay:10.37,2013-06-12 03:03:00,
2013-06-11 23:08:00,52.0,50.0,29.60,ENE,70,0.0,0.0,93,0.00,OVC,,0.65,WeatherDisplay:10.37,2013-06-12 03:08:00,
2013-06-11 23:13:00,52.1,50.1,29.60,ENE,70,0.0,0.0,93,0.01,RA,,0.66,WeatherDisplay:10.37,2013-06-12 03:13:00,
2013-06-11 23:18:00,51.8,49.8,29.60,ENE,70,0.0,0.0,93,0.01,OVC,,0.66,WeatherDisplay:10.37,2013-06-12 03:18:00,
2013-06-11 23:23:00,51.8,49.8,29.60,ENE,71,0.0,0.0,93,0.01,OVC,,0.66,WeatherDisplay:10.37,2013-06-12 03:23:00,
2013-06-11 23:28:00,51.8,49.8,29.60,ENE,70,0.0,0.0,93,0.01,OVC,,0.66,WeatherDisplay:10.37,2013-06-12 03:28:00,
2013-06-11 23:33:00,51.9,49.9,29.60,ENE,70,0.0,0.0,93,0.01,OVC,,0.66,WeatherDisplay:10.37,2013-06-12 03:33:00,
2013-06-11 23:38:00,51.7,49.7,29.60,ENE,71,0.0,0.0,93,0.01,OVC,,0.66,WeatherDisplay:10.37,2013-06-12 03:38:00,
2013-06-11 23:43:00,51.7,49.7,29.60,ENE,71,0.0,0.0,93,0.01,OVC,,0.66,WeatherDisplay:10.37,2013-06-12 03:43:00,
2013-06-11 23:48:00,51.6,49.6,29.60,ENE,70,0.0,0.0,93,0.01,OVC,,0.66,WeatherDisplay:10.37,2013-06-12 03:48:00,
2013-06-11 23:53:00,51.7,49.7,29.60,ENE,71,0.0,0.0,93,0.01,OVC,,0.66,WeatherDisplay:10.37,2013-06-12 03:53:00,
2013-06-11 23:58:00,52.0,50.0,29.60,ENE,70,0.0,0.0,93,0.01,OVC,,0.66,WeatherDisplay:10.37,2013-06-12 03:58:00,